sensor_id;sensor_type;location;lat;lon;timestamp;pressure;altitude;pressure_sealevel;temperature;humidity
77153;BME280;66124;51.146;17.072;2023-12-04T00:00:15;100918.77;;;-4.63;82.32
77153;BME280;66124;51.146;17.072;2023-12-04T00:03:06;100919.24;;;-4.66;82.13
77153;BME280;66124;51.146;17.072;2023-12-04T00:05:36;100922.14;;;-4.70;82.21
77153;BME280;66124;51.146;17.072;2023-12-04T00:08:07;100919.19;;;-4.73;82.13
77153;BME280;66124;51.146;17.072;2023-12-04T00:10:37;100923.36;;;-4.74;82.11
77153;BME280;66124;51.146;17.072;2023-12-04T00:13:08;100929.27;;;-4.76;82.14
77153;BME280;66124;51.146;17.072;2023-12-04T00:15:39;100928.39;;;-4.79;82.22
77153;BME280;66124;51.146;17.072;2023-12-04T00:18:10;100921.27;;;-4.81;82.12
77153;BME280;66124;51.146;17.072;2023-12-04T00:20:41;100920.80;;;-4.82;82.09
77153;BME280;66124;51.146;17.072;2023-12-04T00:23:11;100921.58;;;-4.84;82.09
77153;BME280;66124;51.146;17.072;2023-12-04T00:25:41;100920.30;;;-4.86;82.15
77153;BME280;66124;51.146;17.072;2023-12-04T00:28:11;100914.34;;;-4.87;82.14
77153;BME280;66124;51.146;17.072;2023-12-04T00:30:41;100913.71;;;-4.88;82.05
77153;BME280;66124;51.146;17.072;2023-12-04T00:33:11;100918.05;;;-4.90;82.09
77153;BME280;66124;51.146;17.072;2023-12-04T00:35:42;100922.73;;;-4.91;81.94
77153;BME280;66124;51.146;17.072;2023-12-04T00:38:12;100933.45;;;-4.93;81.89
77153;BME280;66124;51.146;17.072;2023-12-04T00:40:43;100931.80;;;-4.95;82.03
77153;BME280;66124;51.146;17.072;2023-12-04T00:43:14;100934.29;;;-4.97;82.01
77153;BME280;66124;51.146;17.072;2023-12-04T00:45:44;100932.49;;;-4.99;81.80
77153;BME280;66124;51.146;17.072;2023-12-04T00:48:12;100936.66;;;-5.01;81.81
77153;BME280;66124;51.146;17.072;2023-12-04T00:55:51;100940.42;;;-5.00;81.71
77153;BME280;66124;51.146;17.072;2023-12-04T00:58:21;100945.39;;;-5.04;81.70
77153;BME280;66124;51.146;17.072;2023-12-04T01:00:51;100940.08;;;-5.08;81.49
77153;BME280;66124;51.146;17.072;2023-12-04T01:03:21;100942.77;;;-5.11;81.24
77153;BME280;66124;51.146;17.072;2023-12-04T01:05:51;100943.64;;;-5.16;81.20
77153;BME280;66124;51.146;17.072;2023-12-04T01:08:21;100940.42;;;-5.21;81.00
77153;BME280;66124;51.146;17.072;2023-12-04T01:10:52;100940.20;;;-5.28;80.80
77153;BME280;66124;51.146;17.072;2023-12-04T01:13:22;100939.70;;;-5.32;80.78
77153;BME280;66124;51.146;17.072;2023-12-04T01:15:55;100944.05;;;-5.38;80.47
77153;BME280;66124;51.146;17.072;2023-12-04T01:18:24;100945.48;;;-5.44;80.47
77153;BME280;66124;51.146;17.072;2023-12-04T01:20:55;100947.10;;;-5.50;80.62
77153;BME280;66124;51.146;17.072;2023-12-04T01:23:27;100938.44;;;-5.56;80.76
77153;BME280;66124;51.146;17.072;2023-12-04T01:25:58;100945.98;;;-5.56;80.89
77153;BME280;66124;51.146;17.072;2023-12-04T01:28:27;100944.54;;;-5.58;81.04
77153;BME280;66124;51.146;17.072;2023-12-04T01:30:57;100944.30;;;-5.61;80.97
77153;BME280;66124;51.146;17.072;2023-12-04T01:33:28;100947.61;;;-5.63;80.93
77153;BME280;66124;51.146;17.072;2023-12-04T01:35:59;100955.89;;;-5.64;80.68
77153;BME280;66124;51.146;17.072;2023-12-04T01:38:29;100959.72;;;-5.66;80.48
77153;BME280;66124;51.146;17.072;2023-12-04T01:40:59;100956.73;;;-5.69;80.29
77153;BME280;66124;51.146;17.072;2023-12-04T01:43:28;100958.54;;;-5.71;80.30
77153;BME280;66124;51.146;17.072;2023-12-04T01:45:58;100956.10;;;-5.74;80.26
77153;BME280;66124;51.146;17.072;2023-12-04T01:48:29;100956.67;;;-5.76;80.32
77153;BME280;66124;51.146;17.072;2023-12-04T01:51:02;100955.34;;;-5.77;80.47
77153;BME280;66124;51.146;17.072;2023-12-04T01:53:33;100948.41;;;-5.79;80.12
77153;BME280;66124;51.146;17.072;2023-12-04T01:56:05;100946.51;;;-5.82;79.86
77153;BME280;66124;51.146;17.072;2023-12-04T01:58:35;100943.80;;;-5.87;79.84
77153;BME280;66124;51.146;17.072;2023-12-04T02:01:07;100943.98;;;-5.92;79.60
77153;BME280;66124;51.146;17.072;2023-12-04T02:03:36;100939.40;;;-5.97;79.50
77153;BME280;66124;51.146;17.072;2023-12-04T02:06:05;100937.91;;;-6.03;79.37
77153;BME280;66124;51.146;17.072;2023-12-04T02:08:33;100939.69;;;-6.09;79.21
77153;BME280;66124;51.146;17.072;2023-12-04T02:15:53;100936.88;;;-6.21;79.04
77153;BME280;66124;51.146;17.072;2023-12-04T02:18:24;100937.30;;;-6.27;79.07
77153;BME280;66124;51.146;17.072;2023-12-04T02:20:54;100935.61;;;-6.33;78.97
77153;BME280;66124;51.146;17.072;2023-12-04T02:23:24;100931.84;;;-6.37;79.02
77153;BME280;66124;51.146;17.072;2023-12-04T02:25:54;100927.02;;;-6.41;79.13
77153;BME280;66124;51.146;17.072;2023-12-04T02:28:30;100927.16;;;-6.45;79.15
77153;BME280;66124;51.146;17.072;2023-12-04T02:31:01;100923.22;;;-6.50;79.03
77153;BME280;66124;51.146;17.072;2023-12-04T02:33:33;100927.98;;;-6.54;79.08
77153;BME280;66124;51.146;17.072;2023-12-04T02:36:06;100923.29;;;-6.61;78.87
77153;BME280;66124;51.146;17.072;2023-12-04T02:38:36;100926.10;;;-6.63;78.87
77153;BME280;66124;51.146;17.072;2023-12-04T02:41:07;100922.11;;;-6.66;78.89
77153;BME280;66124;51.146;17.072;2023-12-04T02:43:36;100918.93;;;-6.68;78.85
77153;BME280;66124;51.146;17.072;2023-12-04T02:46:06;100918.17;;;-6.71;78.77
77153;BME280;66124;51.146;17.072;2023-12-04T02:48:36;100916.72;;;-6.73;78.71
77153;BME280;66124;51.146;17.072;2023-12-04T02:51:06;100916.30;;;-6.76;78.54
77153;BME280;66124;51.146;17.072;2023-12-04T02:53:36;100915.57;;;-6.80;78.65
77153;BME280;66124;51.146;17.072;2023-12-04T02:56:07;100916.02;;;-6.82;78.50
77153;BME280;66124;51.146;17.072;2023-12-04T02:58:37;100919.16;;;-6.84;78.59
77153;BME280;66124;51.146;17.072;2023-12-04T03:01:07;100923.70;;;-6.87;78.61
77153;BME280;66124;51.146;17.072;2023-12-04T03:03:37;100924.81;;;-6.90;78.46
77153;BME280;66124;51.146;17.072;2023-12-04T03:06:08;100927.20;;;-6.94;78.44
77153;BME280;66124;51.146;17.072;2023-12-04T03:08:37;100926.87;;;-6.99;78.31
77153;BME280;66124;51.146;17.072;2023-12-04T03:11:07;100923.77;;;-7.04;78.33
77153;BME280;66124;51.146;17.072;2023-12-04T03:13:36;100925.98;;;-7.08;78.22
77153;BME280;66124;51.146;17.072;2023-12-04T03:16:14;100928.70;;;-7.13;78.16
77153;BME280;66124;51.146;17.072;2023-12-04T03:18:44;100928.13;;;-7.16;78.23
77153;BME280;66124;51.146;17.072;2023-12-04T03:21:14;100933.38;;;-7.20;78.22
77153;BME280;66124;51.146;17.072;2023-12-04T03:23:43;100931.29;;;-7.24;78.29
77153;BME280;66124;51.146;17.072;2023-12-04T03:26:13;100933.97;;;-7.28;78.21
77153;BME280;66124;51.146;17.072;2023-12-04T03:28:41;100943.20;;;-7.33;78.02
77153;BME280;66124;51.146;17.072;2023-12-04T03:36:20;100944.83;;;-7.41;78.05
77153;BME280;66124;51.146;17.072;2023-12-04T03:38:50;100944.64;;;-7.46;77.92
77153;BME280;66124;51.146;17.072;2023-12-04T03:41:19;100947.95;;;-7.48;77.83
77153;BME280;66124;51.146;17.072;2023-12-04T03:43:49;100949.75;;;-7.50;77.90
77153;BME280;66124;51.146;17.072;2023-12-04T03:46:19;100951.45;;;-7.56;77.80
77153;BME280;66124;51.146;17.072;2023-12-04T03:48:49;100943.76;;;-7.61;77.70
77153;BME280;66124;51.146;17.072;2023-12-04T03:51:19;100937.55;;;-7.64;77.74
77153;BME280;66124;51.146;17.072;2023-12-04T03:53:48;100939.42;;;-7.69;77.77
77153;BME280;66124;51.146;17.072;2023-12-04T03:56:18;100940.98;;;-7.76;77.79
77153;BME280;66124;51.146;17.072;2023-12-04T03:58:48;100938.89;;;-7.80;77.67
77153;BME280;66124;51.146;17.072;2023-12-04T04:01:17;100941.36;;;-7.83;77.80
77153;BME280;66124;51.146;17.072;2023-12-04T04:03:47;100938.01;;;-7.85;77.67
77153;BME280;66124;51.146;17.072;2023-12-04T04:06:16;100938.75;;;-7.87;77.74
77153;BME280;66124;51.146;17.072;2023-12-04T04:08:46;100933.52;;;-7.89;77.73
77153;BME280;66124;51.146;17.072;2023-12-04T04:11:15;100936.48;;;-7.90;77.66
77153;BME280;66124;51.146;17.072;2023-12-04T04:13:45;100934.20;;;-7.94;77.67
77153;BME280;66124;51.146;17.072;2023-12-04T04:16:16;100934.27;;;-7.96;77.73
77153;BME280;66124;51.146;17.072;2023-12-04T04:18:45;100926.80;;;-7.98;77.68
77153;BME280;66124;51.146;17.072;2023-12-04T04:21:15;100924.09;;;-7.98;77.70
77153;BME280;66124;51.146;17.072;2023-12-04T04:23:44;100917.98;;;-7.99;77.57
77153;BME280;66124;51.146;17.072;2023-12-04T04:26:13;100911.20;;;-8.00;77.73
77153;BME280;66124;51.146;17.072;2023-12-04T04:28:43;100907.52;;;-8.03;77.66
77153;BME280;66124;51.146;17.072;2023-12-04T04:31:12;100909.50;;;-8.06;77.62
77153;BME280;66124;51.146;17.072;2023-12-04T04:33:42;100908.20;;;-8.08;77.51
77153;BME280;66124;51.146;17.072;2023-12-04T04:36:12;100903.64;;;-8.10;77.46
77153;BME280;66124;51.146;17.072;2023-12-04T04:38:42;100900.00;;;-8.13;77.49
77153;BME280;66124;51.146;17.072;2023-12-04T04:41:16;100898.39;;;-8.16;77.58
77153;BME280;66124;51.146;17.072;2023-12-04T04:43:45;100898.46;;;-8.19;77.56
77153;BME280;66124;51.146;17.072;2023-12-04T04:46:13;100901.23;;;-8.20;77.59
77153;BME280;66124;51.146;17.072;2023-12-04T04:48:41;100904.47;;;-8.20;77.66
77153;BME280;66124;51.146;17.072;2023-12-04T04:59:28;100901.28;;;-8.22;77.46
77153;BME280;66124;51.146;17.072;2023-12-04T05:01:58;100904.37;;;-8.27;77.37
77153;BME280;66124;51.146;17.072;2023-12-04T05:04:27;100904.77;;;-8.29;77.43
77153;BME280;66124;51.146;17.072;2023-12-04T05:06:56;100899.86;;;-8.31;77.47
77153;BME280;66124;51.146;17.072;2023-12-04T05:09:26;100895.95;;;-8.31;77.46
77153;BME280;66124;51.146;17.072;2023-12-04T05:11:58;100889.86;;;-8.33;77.47
77153;BME280;66124;51.146;17.072;2023-12-04T05:14:28;100894.54;;;-8.35;77.40
77153;BME280;66124;51.146;17.072;2023-12-04T05:16:57;100895.48;;;-8.38;77.34
77153;BME280;66124;51.146;17.072;2023-12-04T05:19:26;100892.69;;;-8.41;77.41
77153;BME280;66124;51.146;17.072;2023-12-04T05:21:56;100889.50;;;-8.43;77.44
77153;BME280;66124;51.146;17.072;2023-12-04T05:24:25;100886.31;;;-8.45;77.63
77153;BME280;66124;51.146;17.072;2023-12-04T05:26:55;100880.56;;;-8.46;77.56
77153;BME280;66124;51.146;17.072;2023-12-04T05:29:24;100879.42;;;-8.48;77.63
77153;BME280;66124;51.146;17.072;2023-12-04T05:31:53;100883.72;;;-8.49;77.61
77153;BME280;66124;51.146;17.072;2023-12-04T05:34:23;100883.06;;;-8.50;77.51
77153;BME280;66124;51.146;17.072;2023-12-04T05:36:52;100882.08;;;-8.52;77.57
77153;BME280;66124;51.146;17.072;2023-12-04T05:39:22;100883.35;;;-8.54;77.48
77153;BME280;66124;51.146;17.072;2023-12-04T05:41:51;100885.11;;;-8.57;77.60
77153;BME280;66124;51.146;17.072;2023-12-04T05:44:21;100882.45;;;-8.59;77.61
77153;BME280;66124;51.146;17.072;2023-12-04T05:46:51;100882.63;;;-8.59;77.45
77153;BME280;66124;51.146;17.072;2023-12-04T05:49:20;100882.11;;;-8.59;77.50
77153;BME280;66124;51.146;17.072;2023-12-04T05:51:49;100878.38;;;-8.60;77.48
77153;BME280;66124;51.146;17.072;2023-12-04T05:54:19;100877.36;;;-8.60;77.37
77153;BME280;66124;51.146;17.072;2023-12-04T05:56:48;100877.58;;;-8.62;77.49
77153;BME280;66124;51.146;17.072;2023-12-04T05:59:18;100875.62;;;-8.64;77.45
77153;BME280;66124;51.146;17.072;2023-12-04T06:01:47;100873.23;;;-8.65;77.50
77153;BME280;66124;51.146;17.072;2023-12-04T06:04:17;100870.04;;;-8.66;77.59
77153;BME280;66124;51.146;17.072;2023-12-04T06:06:46;100865.45;;;-8.66;77.57
77153;BME280;66124;51.146;17.072;2023-12-04T06:09:15;100867.36;;;-8.67;77.39
77153;BME280;66124;51.146;17.072;2023-12-04T06:11:43;100870.73;;;-8.66;77.59
77153;BME280;66124;51.146;17.072;2023-12-04T06:19:34;100866.80;;;-8.60;77.60
77153;BME280;66124;51.146;17.072;2023-12-04T06:22:03;100870.50;;;-8.58;77.71
77153;BME280;66124;51.146;17.072;2023-12-04T06:24:34;100875.63;;;-8.53;77.68
77153;BME280;66124;51.146;17.072;2023-12-04T06:27:05;100877.55;;;-8.48;77.68
77153;BME280;66124;51.146;17.072;2023-12-04T06:29:35;100881.17;;;-8.44;77.66
77153;BME280;66124;51.146;17.072;2023-12-04T06:32:07;100877.66;;;-8.41;77.71
77153;BME280;66124;51.146;17.072;2023-12-04T06:34:37;100877.77;;;-8.38;77.63
77153;BME280;66124;51.146;17.072;2023-12-04T06:37:11;100874.68;;;-8.38;77.58
77153;BME280;66124;51.146;17.072;2023-12-04T06:39:42;100873.80;;;-8.37;77.56
77153;BME280;66124;51.146;17.072;2023-12-04T06:42:26;100871.23;;;-8.36;77.49
77153;BME280;66124;51.146;17.072;2023-12-04T06:44:57;100867.98;;;-8.37;77.31
77153;BME280;66124;51.146;17.072;2023-12-04T06:47:27;100862.37;;;-8.36;77.41
77153;BME280;66124;51.146;17.072;2023-12-04T06:49:59;100861.15;;;-8.35;77.48
77153;BME280;66124;51.146;17.072;2023-12-04T06:52:28;100863.29;;;-8.33;77.40
77153;BME280;66124;51.146;17.072;2023-12-04T06:54:58;100863.05;;;-8.31;77.42
77153;BME280;66124;51.146;17.072;2023-12-04T06:57:27;100858.38;;;-8.28;77.40
77153;BME280;66124;51.146;17.072;2023-12-04T06:59:56;100854.92;;;-8.27;77.36
77153;BME280;66124;51.146;17.072;2023-12-04T07:02:26;100854.20;;;-8.26;77.40
77153;BME280;66124;51.146;17.072;2023-12-04T07:04:55;100852.54;;;-8.28;77.28
77153;BME280;66124;51.146;17.072;2023-12-04T07:07:25;100853.61;;;-8.24;77.50
77153;BME280;66124;51.146;17.072;2023-12-04T07:09:54;100855.42;;;-8.22;77.39
77153;BME280;66124;51.146;17.072;2023-12-04T07:12:24;100858.60;;;-8.20;77.49
77153;BME280;66124;51.146;17.072;2023-12-04T07:14:53;100863.79;;;-8.17;77.70
77153;BME280;66124;51.146;17.072;2023-12-04T07:17:23;100865.77;;;-8.15;77.49
77153;BME280;66124;51.146;17.072;2023-12-04T07:19:53;100869.61;;;-8.12;77.51
77153;BME280;66124;51.146;17.072;2023-12-04T07:22:22;100873.30;;;-8.10;77.57
77153;BME280;66124;51.146;17.072;2023-12-04T07:24:52;100875.29;;;-8.08;77.81
77153;BME280;66124;51.146;17.072;2023-12-04T07:27:21;100874.03;;;-8.07;77.73
77153;BME280;66124;51.146;17.072;2023-12-04T07:29:49;100876.05;;;-8.05;77.82
77153;BME280;66124;51.146;17.072;2023-12-04T07:32:17;100877.52;;;-8.03;77.79
77153;BME280;66124;51.146;17.072;2023-12-04T07:40:15;100880.45;;;-7.88;77.90
77153;BME280;66124;51.146;17.072;2023-12-04T07:42:45;100878.45;;;-7.85;77.95
77153;BME280;66124;51.146;17.072;2023-12-04T07:45:14;100876.52;;;-7.77;78.10
77153;BME280;66124;51.146;17.072;2023-12-04T07:47:44;100871.67;;;-7.70;78.27
77153;BME280;66124;51.146;17.072;2023-12-04T07:50:13;100873.42;;;-7.61;78.33
77153;BME280;66124;51.146;17.072;2023-12-04T07:52:43;100872.15;;;-7.53;78.55
77153;BME280;66124;51.146;17.072;2023-12-04T07:55:12;100872.17;;;-7.43;78.64
77153;BME280;66124;51.146;17.072;2023-12-04T07:57:42;100870.20;;;-7.35;78.46
77153;BME280;66124;51.146;17.072;2023-12-04T08:00:13;100863.91;;;-7.26;78.64
77153;BME280;66124;51.146;17.072;2023-12-04T08:02:43;100859.67;;;-7.18;78.67
77153;BME280;66124;51.146;17.072;2023-12-04T08:05:12;100859.88;;;-7.08;78.76
77153;BME280;66124;51.146;17.072;2023-12-04T08:07:42;100860.08;;;-6.99;78.90
77153;BME280;66124;51.146;17.072;2023-12-04T08:10:11;100855.36;;;-6.92;78.98
77153;BME280;66124;51.146;17.072;2023-12-04T08:12:43;100856.79;;;-6.84;78.99
77153;BME280;66124;51.146;17.072;2023-12-04T08:15:13;100856.48;;;-6.75;78.96
77153;BME280;66124;51.146;17.072;2023-12-04T08:17:43;100853.63;;;-6.68;79.09
77153;BME280;66124;51.146;17.072;2023-12-04T08:20:13;100850.39;;;-6.59;79.20
77153;BME280;66124;51.146;17.072;2023-12-04T08:22:43;100851.23;;;-6.50;79.29
77153;BME280;66124;51.146;17.072;2023-12-04T08:25:12;100850.05;;;-6.41;79.45
77153;BME280;66124;51.146;17.072;2023-12-04T08:27:42;100850.33;;;-6.30;79.48
77153;BME280;66124;51.146;17.072;2023-12-04T08:30:12;100850.92;;;-6.19;79.77
77153;BME280;66124;51.146;17.072;2023-12-04T08:32:41;100855.28;;;-6.08;79.79
77153;BME280;66124;51.146;17.072;2023-12-04T08:35:11;100854.35;;;-5.98;79.96
77153;BME280;66124;51.146;17.072;2023-12-04T08:37:40;100854.63;;;-5.87;80.16
77153;BME280;66124;51.146;17.072;2023-12-04T08:40:12;100858.84;;;-5.78;80.05
77153;BME280;66124;51.146;17.072;2023-12-04T08:42:42;100858.95;;;-5.68;80.18
77153;BME280;66124;51.146;17.072;2023-12-04T08:45:12;100857.87;;;-5.58;80.05
77153;BME280;66124;51.146;17.072;2023-12-04T08:47:42;100859.21;;;-5.49;80.12
77153;BME280;66124;51.146;17.072;2023-12-04T08:50:10;100852.81;;;-5.39;80.22
77153;BME280;66124;51.146;17.072;2023-12-04T08:55:25;100845.86;;;-5.18;79.95
77153;BME280;66124;51.146;17.072;2023-12-04T08:57:54;100841.17;;;-5.12;79.98
77153;BME280;66124;51.146;17.072;2023-12-04T09:00:24;100838.98;;;-5.05;80.02
77153;BME280;66124;51.146;17.072;2023-12-04T09:02:53;100838.16;;;-4.98;80.08
77153;BME280;66124;51.146;17.072;2023-12-04T09:05:22;100842.41;;;-4.89;80.28
77153;BME280;66124;51.146;17.072;2023-12-04T09:07:53;100843.75;;;-4.81;80.20
77153;BME280;66124;51.146;17.072;2023-12-04T09:10:22;100840.67;;;-4.73;80.09
77153;BME280;66124;51.146;17.072;2023-12-04T09:12:52;100836.66;;;-4.68;79.93
77153;BME280;66124;51.146;17.072;2023-12-04T09:15:23;100835.21;;;-4.63;79.96
77153;BME280;66124;51.146;17.072;2023-12-04T09:17:52;100832.13;;;-4.59;79.79
77153;BME280;66124;51.146;17.072;2023-12-04T09:20:22;100834.91;;;-4.56;79.71
77153;BME280;66124;51.146;17.072;2023-12-04T09:22:51;100836.06;;;-4.51;79.80
77153;BME280;66124;51.146;17.072;2023-12-04T09:25:21;100839.93;;;-4.46;79.87
77153;BME280;66124;51.146;17.072;2023-12-04T09:27:50;100843.08;;;-4.40;79.80
77153;BME280;66124;51.146;17.072;2023-12-04T09:30:20;100841.14;;;-4.35;79.69
77153;BME280;66124;51.146;17.072;2023-12-04T09:32:49;100836.03;;;-4.28;79.71
77153;BME280;66124;51.146;17.072;2023-12-04T09:35:19;100838.07;;;-4.20;79.94
77153;BME280;66124;51.146;17.072;2023-12-04T09:37:49;100835.23;;;-4.11;80.04
77153;BME280;66124;51.146;17.072;2023-12-04T09:40:18;100835.40;;;-4.01;79.93
77153;BME280;66124;51.146;17.072;2023-12-04T09:42:48;100828.54;;;-3.90;80.17
77153;BME280;66124;51.146;17.072;2023-12-04T09:45:18;100822.59;;;-3.81;79.83
77153;BME280;66124;51.146;17.072;2023-12-04T09:47:50;100819.40;;;-3.72;79.78
77153;BME280;66124;51.146;17.072;2023-12-04T09:50:20;100815.31;;;-3.66;79.59
77153;BME280;66124;51.146;17.072;2023-12-04T09:52:51;100806.89;;;-3.59;79.33
77153;BME280;66124;51.146;17.072;2023-12-04T09:55:20;100796.64;;;-3.53;79.06
77153;BME280;66124;51.146;17.072;2023-12-04T09:57:50;100788.91;;;-3.46;78.81
77153;BME280;66124;51.146;17.072;2023-12-04T10:00:22;100782.66;;;-3.38;78.88
77153;BME280;66124;51.146;17.072;2023-12-04T10:02:53;100774.52;;;-3.27;78.87
77153;BME280;66124;51.146;17.072;2023-12-04T10:05:24;100768.30;;;-3.13;78.70
77153;BME280;66124;51.146;17.072;2023-12-04T10:07:52;100765.10;;;-2.98;78.64
77153;BME280;66124;51.146;17.072;2023-12-04T10:15:06;100760.81;;;-2.54;78.00
77153;BME280;66124;51.146;17.072;2023-12-04T10:17:37;100753.30;;;-2.37;77.59
77153;BME280;66124;51.146;17.072;2023-12-04T10:20:08;100748.09;;;-2.24;77.25
77153;BME280;66124;51.146;17.072;2023-12-04T10:22:39;100739.80;;;-2.11;77.00
77153;BME280;66124;51.146;17.072;2023-12-04T10:25:18;100736.55;;;-1.97;76.99
77153;BME280;66124;51.146;17.072;2023-12-04T10:27:48;100740.54;;;-1.79;76.68
77153;BME280;66124;51.146;17.072;2023-12-04T10:30:26;100739.77;;;-1.69;76.15
77153;BME280;66124;51.146;17.072;2023-12-04T10:33:01;100731.50;;;-1.64;75.94
77153;BME280;66124;51.146;17.072;2023-12-04T10:35:32;100731.45;;;-1.51;75.91
77153;BME280;66124;51.146;17.072;2023-12-04T10:38:02;100731.55;;;-1.38;75.40
77153;BME280;66124;51.146;17.072;2023-12-04T10:40:33;100731.14;;;-1.31;75.02
77153;BME280;66124;51.146;17.072;2023-12-04T10:43:15;100729.72;;;-1.25;74.85
77153;BME280;66124;51.146;17.072;2023-12-04T10:45:47;100729.98;;;-1.15;74.65
77153;BME280;66124;51.146;17.072;2023-12-04T10:48:18;100726.84;;;-1.09;74.31
77153;BME280;66124;51.146;17.072;2023-12-04T10:50:50;100727.92;;;-1.02;73.89
77153;BME280;66124;51.146;17.072;2023-12-04T10:53:19;100725.21;;;-0.94;73.90
77153;BME280;66124;51.146;17.072;2023-12-04T10:55:50;100727.75;;;-0.77;73.97
77153;BME280;66124;51.146;17.072;2023-12-04T10:58:26;100723.90;;;-0.51;73.67
77153;BME280;66124;51.146;17.072;2023-12-04T11:00:56;100723.35;;;-0.22;73.51
77153;BME280;66124;51.146;17.072;2023-12-04T11:03:31;100720.10;;;0.07;73.14
77153;BME280;66124;51.146;17.072;2023-12-04T11:06:03;100721.52;;;0.34;72.84
77153;BME280;66124;51.146;17.072;2023-12-04T11:08:37;100715.48;;;0.55;72.18
77153;BME280;66124;51.146;17.072;2023-12-04T11:11:12;100716.32;;;0.75;72.06
77153;BME280;66124;51.146;17.072;2023-12-04T11:13:45;100713.99;;;0.94;71.42
77153;BME280;66124;51.146;17.072;2023-12-04T11:16:22;100717.59;;;1.16;71.35
77153;BME280;66124;51.146;17.072;2023-12-04T11:19:00;100712.25;;;1.35;70.78
77153;BME280;66124;51.146;17.072;2023-12-04T11:21:33;100717.46;;;1.57;70.38
77153;BME280;66124;51.146;17.072;2023-12-04T11:24:05;100714.44;;;1.81;70.10
77153;BME280;66124;51.146;17.072;2023-12-04T11:26:35;100709.05;;;2.05;69.48
77153;BME280;66124;51.146;17.072;2023-12-04T11:34:04;100697.93;;;2.70;68.39
77153;BME280;66124;51.146;17.072;2023-12-04T11:36:35;100692.92;;;2.93;67.77
77153;BME280;66124;51.146;17.072;2023-12-04T11:39:10;100691.54;;;3.08;67.22
77153;BME280;66124;51.146;17.072;2023-12-04T11:41:42;100688.34;;;3.24;66.91
77153;BME280;66124;51.146;17.072;2023-12-04T11:44:15;100686.98;;;3.34;66.06
77153;BME280;66124;51.146;17.072;2023-12-04T11:47:05;100674.52;;;3.38;66.08
77153;BME280;66124;51.146;17.072;2023-12-04T11:49:36;100679.35;;;3.51;65.77
77153;BME280;66124;51.146;17.072;2023-12-04T11:52:07;100663.33;;;3.56;65.47
77153;BME280;66124;51.146;17.072;2023-12-04T11:55:00;100662.33;;;3.62;64.97
77153;BME280;66124;51.146;17.072;2023-12-04T11:57:36;100659.52;;;3.47;64.40
77153;BME280;66124;51.146;17.072;2023-12-04T12:00:22;100653.05;;;3.35;64.27
77153;BME280;66124;51.146;17.072;2023-12-04T12:03:05;100646.34;;;3.38;63.90
77153;BME280;66124;51.146;17.072;2023-12-04T12:05:37;100645.33;;;3.38;63.97
77153;BME280;66124;51.146;17.072;2023-12-04T12:08:08;100633.96;;;3.22;63.48
77153;BME280;66124;51.146;17.072;2023-12-04T12:10:39;100631.06;;;3.04;63.76
77153;BME280;66124;51.146;17.072;2023-12-04T12:13:11;100621.46;;;2.92;63.60
77153;BME280;66124;51.146;17.072;2023-12-04T12:15:42;100620.80;;;2.78;63.77
77153;BME280;66124;51.146;17.072;2023-12-04T12:18:15;100625.67;;;2.53;63.33
77153;BME280;66124;51.146;17.072;2023-12-04T12:20:46;100623.93;;;2.25;63.72
77153;BME280;66124;51.146;17.072;2023-12-04T12:23:17;100617.23;;;2.03;63.71
77153;BME280;66124;51.146;17.072;2023-12-04T12:25:51;100615.91;;;1.84;64.18
77153;BME280;66124;51.146;17.072;2023-12-04T12:28:21;100608.39;;;1.65;64.01
77153;BME280;66124;51.146;17.072;2023-12-04T12:30:54;100611.39;;;1.43;64.33
77153;BME280;66124;51.146;17.072;2023-12-04T12:33:25;100605.40;;;1.16;64.31
77153;BME280;66124;51.146;17.072;2023-12-04T12:35:56;100608.55;;;0.94;64.32
77153;BME280;66124;51.146;17.072;2023-12-04T12:38:28;100603.35;;;0.72;64.04
77153;BME280;66124;51.146;17.072;2023-12-04T12:40:59;100593.02;;;0.35;64.41
77153;BME280;66124;51.146;17.072;2023-12-04T12:43:30;100593.10;;;0.09;64.65
77153;BME280;66124;51.146;17.072;2023-12-04T12:45:58;100586.98;;;-0.13;64.97
77153;BME280;66124;51.146;17.072;2023-12-04T12:52:47;100567.46;;;-0.39;65.50
77153;BME280;66124;51.146;17.072;2023-12-04T12:55:26;100569.50;;;-0.46;65.71
77153;BME280;66124;51.146;17.072;2023-12-04T12:57:56;100561.90;;;-0.51;65.83
77153;BME280;66124;51.146;17.072;2023-12-04T13:00:28;100565.06;;;-0.52;66.06
77153;BME280;66124;51.146;17.072;2023-12-04T13:02:59;100557.39;;;-0.58;66.09
77153;BME280;66124;51.146;17.072;2023-12-04T13:05:31;100551.95;;;-0.65;66.31
77153;BME280;66124;51.146;17.072;2023-12-04T13:08:02;100549.45;;;-0.71;66.22
77153;BME280;66124;51.146;17.072;2023-12-04T13:10:32;100540.01;;;-0.85;66.53
77153;BME280;66124;51.146;17.072;2023-12-04T13:13:03;100526.86;;;-1.00;66.71
77153;BME280;66124;51.146;17.072;2023-12-04T13:15:34;100532.42;;;-1.04;66.67
77153;BME280;66124;51.146;17.072;2023-12-04T13:18:04;100529.10;;;-1.16;66.84
77153;BME280;66124;51.146;17.072;2023-12-04T13:20:34;100528.55;;;-1.29;66.99
77153;BME280;66124;51.146;17.072;2023-12-04T13:23:03;100530.05;;;-1.42;66.93
77153;BME280;66124;51.146;17.072;2023-12-04T13:25:33;100525.52;;;-1.58;67.26
77153;BME280;66124;51.146;17.072;2023-12-04T13:28:02;100521.59;;;-1.69;67.45
77153;BME280;66124;51.146;17.072;2023-12-04T13:30:32;100517.83;;;-1.78;67.38
77153;BME280;66124;51.146;17.072;2023-12-04T13:33:02;100517.11;;;-1.85;67.80
77153;BME280;66124;51.146;17.072;2023-12-04T13:35:31;100516.86;;;-1.93;68.09
77153;BME280;66124;51.146;17.072;2023-12-04T13:38:01;100514.09;;;-1.98;68.28
77153;BME280;66124;51.146;17.072;2023-12-04T13:40:32;100502.25;;;-2.07;68.39
77153;BME280;66124;51.146;17.072;2023-12-04T13:43:03;100500.52;;;-2.10;68.60
77153;BME280;66124;51.146;17.072;2023-12-04T13:45:33;100496.34;;;-2.15;68.76
77153;BME280;66124;51.146;17.072;2023-12-04T13:48:04;100493.31;;;-2.22;68.76